createdAt,value
2023-03-11T00:00:34.005Z,94203.44
2023-03-11T00:05:40.563Z,94224.56
2023-03-11T00:10:44.015Z,94224.97
2023-03-11T00:15:48.616Z,94231.44
2023-03-11T00:20:50.155Z,94260.03
2023-03-11T00:25:52.173Z,94246.81
2023-03-11T00:30:53.854Z,94265.75
2023-03-11T00:35:55.539Z,94286.53
2023-03-11T00:40:57.137Z,94298.50
2023-03-11T00:45:58.663Z,94281.91
2023-03-11T00:51:00.221Z,94289.66
2023-03-11T00:56:09.947Z,94285.72
2023-03-11T01:01:16.192Z,94330.41
2023-03-11T01:06:17.878Z,94308.47
2023-03-11T01:11:20.698Z,94343.47
2023-03-11T01:16:22.530Z,94348.31
2023-03-11T01:21:24.256Z,94329.59
2023-03-11T01:26:25.782Z,94336.56
2023-03-11T01:31:30.603Z,94384.22
2023-03-11T01:36:32.459Z,94347.59
2023-03-11T01:41:33.960Z,94356.19
2023-03-11T01:46:59.678Z,94383.19
2023-03-11T01:52:07.976Z,94346.16
2023-03-11T01:57:16.314Z,94373.88
2023-03-11T02:02:41.986Z,94378.94
2023-03-11T02:07:44.145Z,94404.44
2023-03-11T02:12:50.721Z,94396.63
2023-03-11T02:18:05.155Z,94407.88
2023-03-11T02:23:07.386Z,94413.63
2023-03-11T02:28:12.596Z,94410.81
2023-03-11T02:33:15.670Z,94431.53
2023-03-11T02:38:20.434Z,94408.03
2023-03-11T02:43:27.800Z,94417.88
2023-03-11T02:48:30.921Z,94399.50
2023-03-11T02:53:37.976Z,94391.47
2023-03-11T02:58:40.525Z,94395.38
2023-03-11T03:03:44.150Z,94421.50
2023-03-11T03:08:46.601Z,94389.50
2023-03-11T03:13:48.115Z,94412.53
2023-03-11T03:18:51.509Z,94416.44
2023-03-11T03:23:53.665Z,94423.84
2023-03-11T03:28:55.349Z,94440.78
2023-03-11T03:33:57.049Z,94439.66
2023-03-11T03:38:59.674Z,94450.41
2023-03-11T03:44:05.814Z,94465.19
2023-03-11T03:49:09.437Z,94459.41
2023-03-11T03:54:11.169Z,94481.81
2023-03-11T03:59:13.149Z,94486.75
2023-03-11T04:04:20.310Z,94483.13
2023-03-11T04:09:22.335Z,94487.66
2023-03-11T04:14:24.247Z,94498.78
2023-03-11T04:19:30.165Z,94496.09
2023-03-11T04:24:32.724Z,94506.91
2023-03-11T04:29:34.519Z,94527.59
2023-03-11T04:34:37.059Z,94519.34
2023-03-11T04:39:38.932Z,94520.91
2023-03-11T04:44:40.986Z,94527.38
2023-03-11T04:49:42.619Z,94541.63
2023-03-11T04:54:46.535Z,94545.09
2023-03-11T04:59:48.198Z,94574.59
2023-03-11T05:04:50.426Z,94564.59
2023-03-11T05:09:52.129Z,94583.66
2023-03-11T05:14:53.978Z,94592.47
2023-03-11T05:19:56.278Z,94586.88
2023-03-11T05:25:02.945Z,94594.63
2023-03-11T05:30:05.695Z,94594.22
2023-03-11T05:35:09.984Z,94607.69
2023-03-11T05:40:12.470Z,94630.63
2023-03-11T05:45:14.650Z,94624.47
2023-03-11T05:50:18.741Z,94635.84
2023-03-11T05:55:22.286Z,94629.41
2023-03-11T06:00:24.353Z,94623.25
2023-03-11T06:05:28.159Z,94617.66
2023-03-11T06:10:31.264Z,94643.53
2023-03-11T06:15:37.422Z,94634.19
2023-03-11T06:20:39.713Z,94640.69
2023-03-11T06:25:41.357Z,94659.84
2023-03-11T06:30:44.190Z,94659.13
2023-03-11T06:35:59.149Z,94671.88
2023-03-11T06:41:03.755Z,94674.53
2023-03-11T06:46:16.551Z,94683.25
2023-03-11T06:51:20.507Z,94686.06
2023-03-11T06:56:23.336Z,94700.31
2023-03-11T07:01:30.715Z,94713.03
2023-03-11T07:06:34.352Z,94716.88
2023-03-11T07:11:53.281Z,94719.59
2023-03-11T07:17:01.958Z,94724.59
2023-03-11T07:22:15.840Z,94721.91
2023-03-11T07:27:17.722Z,94725.31
2023-03-11T07:32:19.427Z,94730.41
2023-03-11T07:37:20.961Z,94746.22
2023-03-11T07:42:22.500Z,94755.53
2023-03-11T07:47:24.730Z,94771.81
2023-03-11T07:52:31.000Z,94774.16
2023-03-11T07:57:32.521Z,94771.06
2023-03-11T08:02:34.196Z,94791.97
2023-03-11T08:07:35.730Z,94813.22
2023-03-11T08:12:37.289Z,94815.19
2023-03-11T08:17:38.844Z,94801.88
2023-03-11T08:22:55.466Z,94807.72
2023-03-11T08:27:59.155Z,94814.63
2023-03-11T08:33:01.394Z,94805.44
2023-03-11T08:38:03.021Z,94811.44
2023-03-11T08:43:04.633Z,94829.69
2023-03-11T08:48:06.580Z,94844.81
2023-03-11T08:53:08.824Z,94861.09
2023-03-11T08:58:10.364Z,94858.06
2023-03-11T09:03:12.240Z,94870.06
2023-03-11T09:08:13.798Z,94870.09
2023-03-11T09:13:15.351Z,94873.25
2023-03-11T09:18:17.828Z,94882.81
2023-03-11T09:23:19.330Z,94888.69
2023-03-11T09:28:20.968Z,94888.22
2023-03-11T09:33:22.556Z,94904.09
2023-03-11T09:38:24.521Z,94909.38
2023-03-11T09:43:44.616Z,94918.53
2023-03-11T09:49:21.464Z,94921.44
2023-03-11T09:54:24.017Z,94933.31
2023-03-11T09:59:33.255Z,94930.44
2023-03-11T10:04:54.716Z,94921.97
2023-03-11T10:09:58.938Z,94926.66
2023-03-11T10:15:14.853Z,94914.31
2023-03-11T10:20:30.656Z,94924.44
2023-03-11T10:25:42.645Z,94933.84
2023-03-11T10:30:50.227Z,94943.84
2023-03-11T10:35:54.576Z,94937.69
2023-03-11T10:41:00.202Z,94932.63
2023-03-11T10:46:14.308Z,94935.09
2023-03-11T10:51:26.663Z,94946.59
2023-03-11T10:56:40.154Z,94939.78
2023-03-11T11:01:57.976Z,94936.44
2023-03-11T11:07:28.380Z,94929.22
2023-03-11T11:12:29.907Z,94938.22
2023-03-11T11:17:33.901Z,94936.13
2023-03-11T11:22:35.506Z,94935.00
2023-03-11T11:27:37.154Z,94930.00
2023-03-11T11:32:38.869Z,94923.06
2023-03-11T11:38:02.306Z,94940.81
2023-03-11T11:43:07.302Z,94945.44
2023-03-11T11:48:24.185Z,94956.94
2023-03-11T11:53:34.919Z,94951.94
2023-03-11T11:58:36.521Z,94952.69
2023-03-11T12:04:17.232Z,94946.22
2023-03-11T12:09:33.210Z,94950.13
2023-03-11T12:14:53.157Z,94940.84
2023-03-11T12:20:00.778Z,94950.84
2023-03-11T12:25:28.462Z,94955.28
2023-03-11T12:30:33.308Z,94948.25
2023-03-11T12:35:36.047Z,94956.81
2023-03-11T12:40:50.039Z,94951.38
2023-03-11T12:45:53.340Z,94946.44
2023-03-11T12:50:55.491Z,94952.25
2023-03-11T12:56:39.672Z,94951.00
2023-03-11T13:01:44.446Z,94944.47
2023-03-11T13:07:08.156Z,94941.78
2023-03-11T13:12:46.194Z,94951.09
2023-03-11T13:18:24.822Z,94956.47
2023-03-11T13:23:38.260Z,94959.94
2023-03-11T13:28:58.419Z,94949.16
2023-03-11T13:34:14.536Z,94957.38
2023-03-11T13:39:31.484Z,94967.09
2023-03-11T13:44:39.768Z,94968.59
2023-03-11T13:49:43.593Z,94976.72
2023-03-11T13:54:48.899Z,94989.88
2023-03-11T13:59:55.748Z,94992.28
2023-03-11T14:05:05.444Z,94994.19
2023-03-11T14:10:28.704Z,94997.63
2023-03-11T14:15:43.747Z,95008.75
2023-03-11T14:20:48.373Z,95007.56
2023-03-11T14:25:58.500Z,95023.78
2023-03-11T14:31:01.805Z,95023.72
2023-03-11T14:36:09.897Z,95029.59
2023-03-11T14:41:13.987Z,95032.78
2023-03-11T14:46:21.928Z,95040.50
2023-03-11T14:51:31.372Z,95031.66
2023-03-11T14:56:37.119Z,95042.53
2023-03-11T15:01:41.059Z,95037.13
2023-03-11T15:06:43.903Z,95039.84
2023-03-11T15:12:01.013Z,95047.97
2023-03-11T15:17:37.422Z,95043.38
2023-03-11T15:22:42.675Z,95053.38
2023-03-11T15:27:44.272Z,95063.78
2023-03-11T15:32:46.307Z,95061.88
2023-03-11T15:37:49.567Z,95061.09
2023-03-11T15:43:27.646Z,95067.63
2023-03-11T15:48:29.998Z,95067.28
2023-03-11T15:53:31.697Z,95083.91
2023-03-11T15:58:33.246Z,95085.81
2023-03-11T16:03:34.834Z,95087.72
2023-03-11T16:08:36.300Z,95088.13
2023-03-11T16:13:38.167Z,95082.66
2023-03-11T16:18:39.734Z,95083.81
2023-03-11T16:23:51.140Z,95095.41
2023-03-11T16:28:53.666Z,95096.56
2023-03-11T16:33:55.152Z,95101.22
2023-03-11T16:38:56.762Z,95101.44
2023-03-11T16:43:58.522Z,95107.91
2023-03-11T16:49:00.147Z,95124.47
2023-03-11T16:54:01.846Z,95135.19
2023-03-11T16:59:04.279Z,95133.47
2023-03-11T17:04:07.190Z,95133.84
2023-03-11T17:09:09.043Z,95138.09
2023-03-11T17:14:16.562Z,95135.19
2023-03-11T17:19:18.656Z,95136.06
2023-03-11T17:24:20.163Z,95147.78
2023-03-11T17:29:21.827Z,95150.50
2023-03-11T17:34:23.532Z,95167.16
2023-03-11T17:39:25.173Z,95175.25
2023-03-11T17:44:26.846Z,95179.50
2023-03-11T17:49:28.581Z,95176.47
2023-03-11T17:54:30.062Z,95186.19
2023-03-11T17:59:31.676Z,95212.50
2023-03-11T18:04:33.168Z,95204.38
2023-03-11T18:09:34.684Z,95218.38
2023-03-11T18:14:36.918Z,95222.25
2023-03-11T18:19:38.768Z,95229.66
2023-03-11T18:24:40.278Z,95230.81
2023-03-11T18:29:42.076Z,95228.88
2023-03-11T18:34:43.978Z,95246.28
2023-03-11T18:39:45.524Z,95250.91
2023-03-11T18:44:47.169Z,95250.56
2023-03-11T18:49:48.984Z,95246.28
2023-03-11T18:54:50.552Z,95247.44
2023-03-11T18:59:52.409Z,95246.66
2023-03-11T19:04:54.166Z,95244.31
2023-03-11T19:09:55.750Z,95248.94
2023-03-11T19:14:57.412Z,95253.94
2023-03-11T19:19:59.034Z,95254.66
2023-03-11T19:25:00.690Z,95273.94
2023-03-11T19:30:02.396Z,95272.31
2023-03-11T19:35:04.238Z,95264.06
2023-03-11T19:40:06.733Z,95272.41
2023-03-11T19:45:08.791Z,95266.84
2023-03-11T19:50:11.016Z,95260.88
2023-03-11T19:55:12.617Z,95266.06
2023-03-11T20:00:14.572Z,95264.00
2023-03-11T20:05:16.268Z,95268.97
2023-03-11T20:10:17.961Z,95278.22
2023-03-11T20:15:19.633Z,95272.84
2023-03-11T20:20:21.790Z,95271.28
2023-03-11T20:25:24.908Z,95276.25
2023-03-11T20:30:27.797Z,95278.94
2023-03-11T20:35:29.390Z,95281.22
2023-03-11T20:40:30.954Z,95283.47
2023-03-11T20:45:32.666Z,95282.28
2023-03-11T20:50:34.589Z,95279.94
2023-03-11T20:55:40.755Z,95281.06
2023-03-11T21:00:42.388Z,95295.63
2023-03-11T21:05:45.596Z,95296.34
2023-03-11T21:10:47.104Z,95297.84
2023-03-11T21:15:48.762Z,95296.28
2023-03-11T21:20:50.730Z,95296.28
2023-03-11T21:26:02.859Z,95300.53
2023-03-11T21:31:11.226Z,95302.47
2023-03-11T21:36:14.741Z,95302.03
2023-03-11T21:41:25.496Z,95305.09
2023-03-11T21:46:30.514Z,95302.75
2023-03-11T21:51:32.253Z,95308.13
2023-03-11T21:56:33.801Z,95321.63
2023-03-11T22:01:35.505Z,95310.84
2023-03-11T22:06:37.413Z,95315.47
2023-03-11T22:11:39.016Z,95321.97
2023-03-11T22:16:40.723Z,95323.91
2023-03-11T22:21:43.122Z,95323.91
2023-03-11T22:26:44.782Z,95332.38
2023-03-11T22:31:46.425Z,95339.66
2023-03-11T22:36:48.011Z,95331.16
2023-03-11T22:41:49.516Z,95334.19
2023-03-11T22:46:51.086Z,95334.97
2023-03-11T22:51:52.899Z,95338.03
2023-03-11T22:56:54.503Z,95343.78
2023-03-11T23:01:56.587Z,95344.94
2023-03-11T23:06:58.319Z,95356.06
2023-03-11T23:12:03.573Z,95357.13
2023-03-11T23:17:05.267Z,95359.38
2023-03-11T23:22:07.034Z,95357.38
2023-03-11T23:27:08.575Z,95358.53
2023-03-11T23:32:11.236Z,95370.44
2023-03-11T23:37:13.025Z,95368.78
2023-03-11T23:42:24.886Z,95368.38
2023-03-11T23:47:27.877Z,95373.78
2023-03-11T23:52:29.568Z,95371.06
2023-03-11T23:57:31.178Z,95365.69
